sensor_id;sensor_type;location;lat;lon;timestamp;P1;durP1;ratioP1;P2;durP2;ratioP2
21589;SDS011;10957;50.968;6.828;2023-02-17T00:02:21;2.95;;;2.78;;
21589;SDS011;10957;50.968;6.828;2023-02-17T00:07:23;2.85;;;2.65;;
21589;SDS011;10957;50.968;6.828;2023-02-17T00:12:24;2.40;;;2.30;;
21589;SDS011;10957;50.968;6.828;2023-02-17T00:17:26;2.63;;;2.53;;
21589;SDS011;10957;50.968;6.828;2023-02-17T00:22:27;2.60;;;2.50;;
21589;SDS011;10957;50.968;6.828;2023-02-17T00:27:28;2.30;;;2.20;;
21589;SDS011;10957;50.968;6.828;2023-02-17T00:32:29;2.67;;;2.47;;
21589;SDS011;10957;50.968;6.828;2023-02-17T00:37:33;2.80;;;2.70;;
21589;SDS011;10957;50.968;6.828;2023-02-17T00:42:36;4.10;;;3.80;;
21589;SDS011;10957;50.968;6.828;2023-02-17T00:47:37;2.70;;;2.60;;
21589;SDS011;10957;50.968;6.828;2023-02-17T00:52:38;3.28;;;3.03;;
21589;SDS011;10957;50.968;6.828;2023-02-17T00:57:41;2.60;;;2.50;;
21589;SDS011;10957;50.968;6.828;2023-02-17T01:02:42;3.40;;;2.65;;
21589;SDS011;10957;50.968;6.828;2023-02-17T01:07:43;2.67;;;2.58;;
21589;SDS011;10957;50.968;6.828;2023-02-17T01:12:46;2.40;;;2.30;;
21589;SDS011;10957;50.968;6.828;2023-02-17T01:17:47;2.58;;;2.47;;
21589;SDS011;10957;50.968;6.828;2023-02-17T01:22:49;3.03;;;2.83;;
21589;SDS011;10957;50.968;6.828;2023-02-17T01:27:50;2.45;;;2.35;;
21589;SDS011;10957;50.968;6.828;2023-02-17T01:32:51;2.47;;;2.38;;
21589;SDS011;10957;50.968;6.828;2023-02-17T01:37:52;2.20;;;2.10;;
21589;SDS011;10957;50.968;6.828;2023-02-17T01:42:53;3.10;;;2.90;;
21589;SDS011;10957;50.968;6.828;2023-02-17T01:47:55;2.22;;;2.13;;
21589;SDS011;10957;50.968;6.828;2023-02-17T01:53:12;2.50;;;2.40;;
21589;SDS011;10957;50.968;6.828;2023-02-17T01:58:18;2.20;;;2.10;;
21589;SDS011;10957;50.968;6.828;2023-02-17T02:03:22;2.40;;;2.30;;
21589;SDS011;10957;50.968;6.828;2023-02-17T02:08:26;2.83;;;2.72;;
21589;SDS011;10957;50.968;6.828;2023-02-17T02:13:29;2.50;;;2.40;;
21589;SDS011;10957;50.968;6.828;2023-02-17T02:18:47;2.70;;;2.60;;
21589;SDS011;10957;50.968;6.828;2023-02-17T02:29:24;2.65;;;2.55;;
21589;SDS011;10957;50.968;6.828;2023-02-17T02:34:48;2.88;;;2.78;;
21589;SDS011;10957;50.968;6.828;2023-02-17T02:39:54;3.22;;;3.03;;
21589;SDS011;10957;50.968;6.828;2023-02-17T02:44:59;2.20;;;2.10;;
21589;SDS011;10957;50.968;6.828;2023-02-17T02:50:01;2.70;;;2.60;;
21589;SDS011;10957;50.968;6.828;2023-02-17T02:55:04;3.00;;;2.90;;
21589;SDS011;10957;50.968;6.828;2023-02-17T03:00:23;2.72;;;2.63;;
21589;SDS011;10957;50.968;6.828;2023-02-17T03:10:43;2.50;;;2.40;;
21589;SDS011;10957;50.968;6.828;2023-02-17T03:15:50;2.45;;;2.35;;
21589;SDS011;10957;50.968;6.828;2023-02-17T03:20:53;2.60;;;2.50;;
21589;SDS011;10957;50.968;6.828;2023-02-17T03:25:59;2.95;;;2.85;;
21589;SDS011;10957;50.968;6.828;2023-02-17T03:31:00;2.50;;;2.40;;
21589;SDS011;10957;50.968;6.828;2023-02-17T03:36:01;2.40;;;2.30;;
21589;SDS011;10957;50.968;6.828;2023-02-17T03:41:03;2.60;;;2.50;;
21589;SDS011;10957;50.968;6.828;2023-02-17T03:46:08;2.20;;;2.10;;
21589;SDS011;10957;50.968;6.828;2023-02-17T03:56:16;2.75;;;2.63;;
21589;SDS011;10957;50.968;6.828;2023-02-17T04:01:17;4.07;;;3.88;;
21589;SDS011;10957;50.968;6.828;2023-02-17T04:06:18;3.15;;;2.92;;
21589;SDS011;10957;50.968;6.828;2023-02-17T04:11:20;2.88;;;2.78;;
21589;SDS011;10957;50.968;6.828;2023-02-17T04:16:21;2.80;;;2.60;;
21589;SDS011;10957;50.968;6.828;2023-02-17T04:21:22;2.55;;;2.45;;
21589;SDS011;10957;50.968;6.828;2023-02-17T04:26:23;3.08;;;2.90;;
21589;SDS011;10957;50.968;6.828;2023-02-17T04:31:24;3.55;;;3.35;;
21589;SDS011;10957;50.968;6.828;2023-02-17T04:36:27;3.22;;;3.13;;
21589;SDS011;10957;50.968;6.828;2023-02-17T04:41:28;4.32;;;3.60;;
21589;SDS011;10957;50.968;6.828;2023-02-17T04:46:30;3.63;;;3.47;;
21589;SDS011;10957;50.968;6.828;2023-02-17T04:51:31;2.90;;;2.80;;
21589;SDS011;10957;50.968;6.828;2023-02-17T04:56:32;2.70;;;2.60;;
21589;SDS011;10957;50.968;6.828;2023-02-17T05:01:33;2.72;;;2.63;;
21589;SDS011;10957;50.968;6.828;2023-02-17T05:06:35;3.67;;;3.40;;
21589;SDS011;10957;50.968;6.828;2023-02-17T05:11:36;3.60;;;3.40;;
21589;SDS011;10957;50.968;6.828;2023-02-17T05:16:37;2.95;;;2.85;;
21589;SDS011;10957;50.968;6.828;2023-02-17T05:21:38;3.35;;;3.15;;
21589;SDS011;10957;50.968;6.828;2023-02-17T05:26:39;2.97;;;2.88;;
21589;SDS011;10957;50.968;6.828;2023-02-17T05:31:41;2.83;;;2.63;;
21589;SDS011;10957;50.968;6.828;2023-02-17T05:36:42;3.30;;;3.20;;
21589;SDS011;10957;50.968;6.828;2023-02-17T05:41:43;2.85;;;2.75;;
21589;SDS011;10957;50.968;6.828;2023-02-17T05:46:44;3.80;;;3.60;;
21589;SDS011;10957;50.968;6.828;2023-02-17T05:51:45;3.58;;;3.38;;
21589;SDS011;10957;50.968;6.828;2023-02-17T05:56:47;2.92;;;2.83;;
21589;SDS011;10957;50.968;6.828;2023-02-17T06:01:48;2.75;;;2.65;;
21589;SDS011;10957;50.968;6.828;2023-02-17T06:06:49;2.90;;;2.80;;
21589;SDS011;10957;50.968;6.828;2023-02-17T06:11:50;3.00;;;2.90;;
21589;SDS011;10957;50.968;6.828;2023-02-17T06:16:51;6.78;;;3.53;;
21589;SDS011;10957;50.968;6.828;2023-02-17T06:21:53;3.28;;;3.17;;
21589;SDS011;10957;50.968;6.828;2023-02-17T06:26:56;3.72;;;3.47;;
21589;SDS011;10957;50.968;6.828;2023-02-17T06:31:57;3.85;;;3.60;;
21589;SDS011;10957;50.968;6.828;2023-02-17T06:36:59;3.65;;;3.45;;
21589;SDS011;10957;50.968;6.828;2023-02-17T06:42:00;3.00;;;2.90;;
21589;SDS011;10957;50.968;6.828;2023-02-17T06:47:01;2.92;;;2.83;;
21589;SDS011;10957;50.968;6.828;2023-02-17T06:52:03;3.33;;;3.22;;
21589;SDS011;10957;50.968;6.828;2023-02-17T06:57:05;2.60;;;2.50;;
21589;SDS011;10957;50.968;6.828;2023-02-17T07:02:06;2.95;;;2.85;;
21589;SDS011;10957;50.968;6.828;2023-02-17T07:07:11;3.05;;;2.95;;
21589;SDS011;10957;50.968;6.828;2023-02-17T07:12:13;2.50;;;2.40;;
21589;SDS011;10957;50.968;6.828;2023-02-17T07:17:14;3.05;;;2.85;;
21589;SDS011;10957;50.968;6.828;2023-02-17T07:22:15;2.67;;;2.53;;
21589;SDS011;10957;50.968;6.828;2023-02-17T07:27:16;2.30;;;2.20;;
21589;SDS011;10957;50.968;6.828;2023-02-17T07:32:17;2.55;;;2.45;;
21589;SDS011;10957;50.968;6.828;2023-02-17T07:37:19;2.92;;;2.83;;
21589;SDS011;10957;50.968;6.828;2023-02-17T07:42:21;2.20;;;2.10;;
21589;SDS011;10957;50.968;6.828;2023-02-17T07:47:23;2.70;;;2.60;;
21589;SDS011;10957;50.968;6.828;2023-02-17T07:52:24;2.65;;;2.55;;
21589;SDS011;10957;50.968;6.828;2023-02-17T07:57:26;2.20;;;2.10;;
21589;SDS011;10957;50.968;6.828;2023-02-17T08:02:27;2.20;;;2.10;;
21589;SDS011;10957;50.968;6.828;2023-02-17T08:07:28;2.40;;;2.30;;
21589;SDS011;10957;50.968;6.828;2023-02-17T08:12:29;2.72;;;2.63;;
21589;SDS011;10957;50.968;6.828;2023-02-17T08:17:49;2.55;;;2.45;;
21589;SDS011;10957;50.968;6.828;2023-02-17T08:22:50;2.33;;;2.22;;
21589;SDS011;10957;50.968;6.828;2023-02-17T08:27:51;2.30;;;2.20;;
21589;SDS011;10957;50.968;6.828;2023-02-17T08:32:54;2.50;;;2.40;;
21589;SDS011;10957;50.968;6.828;2023-02-17T08:37:55;2.95;;;2.75;;
21589;SDS011;10957;50.968;6.828;2023-02-17T08:42:57;2.63;;;2.53;;
21589;SDS011;10957;50.968;6.828;2023-02-17T08:47:58;3.38;;;3.17;;
21589;SDS011;10957;50.968;6.828;2023-02-17T08:52:59;2.50;;;2.40;;
21589;SDS011;10957;50.968;6.828;2023-02-17T08:58:00;2.75;;;2.55;;
21589;SDS011;10957;50.968;6.828;2023-02-17T09:03:01;2.20;;;2.10;;
21589;SDS011;10957;50.968;6.828;2023-02-17T09:08:03;2.40;;;2.30;;
21589;SDS011;10957;50.968;6.828;2023-02-17T09:13:05;2.40;;;2.30;;
21589;SDS011;10957;50.968;6.828;2023-02-17T09:18:06;2.60;;;2.50;;
21589;SDS011;10957;50.968;6.828;2023-02-17T09:23:07;2.83;;;2.72;;
21589;SDS011;10957;50.968;6.828;2023-02-17T09:28:08;2.90;;;2.80;;
21589;SDS011;10957;50.968;6.828;2023-02-17T09:33:10;2.90;;;2.80;;
21589;SDS011;10957;50.968;6.828;2023-02-17T09:38:12;3.10;;;3.00;;
21589;SDS011;10957;50.968;6.828;2023-02-17T09:43:14;3.20;;;3.10;;
21589;SDS011;10957;50.968;6.828;2023-02-17T09:48:19;3.10;;;3.00;;
21589;SDS011;10957;50.968;6.828;2023-02-17T09:58:40;3.40;;;3.30;;
21589;SDS011;10957;50.968;6.828;2023-02-17T10:04:11;3.42;;;3.33;;
21589;SDS011;10957;50.968;6.828;2023-02-17T10:09:22;4.20;;;3.90;;
21589;SDS011;10957;50.968;6.828;2023-02-17T10:14:27;3.90;;;3.70;;
21589;SDS011;10957;50.968;6.828;2023-02-17T10:19:30;4.10;;;3.90;;
21589;SDS011;10957;50.968;6.828;2023-02-17T10:24:40;3.70;;;3.60;;
21589;SDS011;10957;50.968;6.828;2023-02-17T10:29:49;3.63;;;3.53;;
21589;SDS011;10957;50.968;6.828;2023-02-17T10:35:12;4.10;;;3.90;;
21589;SDS011;10957;50.968;6.828;2023-02-17T10:40:24;4.13;;;3.92;;
21589;SDS011;10957;50.968;6.828;2023-02-17T10:45:29;4.00;;;3.80;;
21589;SDS011;10957;50.968;6.828;2023-02-17T10:50:34;4.80;;;4.50;;
21589;SDS011;10957;50.968;6.828;2023-02-17T10:55:39;4.53;;;4.32;;
21589;SDS011;10957;50.968;6.828;2023-02-17T11:00:51;4.15;;;3.95;;
21589;SDS011;10957;50.968;6.828;2023-02-17T11:06:00;4.80;;;4.60;;
21589;SDS011;10957;50.968;6.828;2023-02-17T11:11:05;4.40;;;4.20;;
21589;SDS011;10957;50.968;6.828;2023-02-17T11:16:21;5.88;;;5.60;;
21589;SDS011;10957;50.968;6.828;2023-02-17T11:21:27;4.80;;;4.60;;
21589;SDS011;10957;50.968;6.828;2023-02-17T11:26:30;4.60;;;4.40;;
21589;SDS011;10957;50.968;6.828;2023-02-17T11:31:33;4.20;;;4.00;;
21589;SDS011;10957;50.968;6.828;2023-02-17T11:36:35;4.20;;;4.00;;
21589;SDS011;10957;50.968;6.828;2023-02-17T11:41:39;3.90;;;3.80;;
21589;SDS011;10957;50.968;6.828;2023-02-17T11:46:51;3.95;;;3.80;;
21589;SDS011;10957;50.968;6.828;2023-02-17T11:57:38;4.40;;;4.20;;
21589;SDS011;10957;50.968;6.828;2023-02-17T12:13:24;4.72;;;4.53;;
21589;SDS011;10957;50.968;6.828;2023-02-17T12:24:11;4.70;;;4.50;;
21589;SDS011;10957;50.968;6.828;2023-02-17T12:29:27;5.00;;;4.80;;
21589;SDS011;10957;50.968;6.828;2023-02-17T12:34:49;4.97;;;4.78;;
21589;SDS011;10957;50.968;6.828;2023-02-17T12:39:58;4.78;;;4.57;;
21589;SDS011;10957;50.968;6.828;2023-02-17T12:45:20;6.15;;;5.68;;
21589;SDS011;10957;50.968;6.828;2023-02-17T12:50:25;5.00;;;4.80;;
21589;SDS011;10957;50.968;6.828;2023-02-17T12:55:42;5.88;;;5.53;;
21589;SDS011;10957;50.968;6.828;2023-02-17T13:00:51;5.82;;;5.57;;
21589;SDS011;10957;50.968;6.828;2023-02-17T13:11:00;8.23;;;7.53;;
21589;SDS011;10957;50.968;6.828;2023-02-17T13:26:24;5.22;;;5.03;;
21589;SDS011;10957;50.968;6.828;2023-02-17T13:31:27;13.02;;;5.68;;
21589;SDS011;10957;50.968;6.828;2023-02-17T13:41:46;5.65;;;5.38;;
21589;SDS011;10957;50.968;6.828;2023-02-17T13:46:48;5.50;;;5.30;;
21589;SDS011;10957;50.968;6.828;2023-02-17T13:51:50;5.50;;;5.30;;
21589;SDS011;10957;50.968;6.828;2023-02-17T13:56:52;5.40;;;5.20;;
21589;SDS011;10957;50.968;6.828;2023-02-17T14:01:53;5.65;;;5.35;;
21589;SDS011;10957;50.968;6.828;2023-02-17T14:06:56;5.60;;;5.40;;
21589;SDS011;10957;50.968;6.828;2023-02-17T14:12:00;6.45;;;6.05;;
21589;SDS011;10957;50.968;6.828;2023-02-17T14:17:06;5.20;;;5.00;;
21589;SDS011;10957;50.968;6.828;2023-02-17T14:27:23;5.90;;;5.60;;
21589;SDS011;10957;50.968;6.828;2023-02-17T14:32:25;6.93;;;6.45;;
21589;SDS011;10957;50.968;6.828;2023-02-17T14:37:27;5.40;;;5.20;;
21589;SDS011;10957;50.968;6.828;2023-02-17T14:42:30;5.30;;;5.10;;
21589;SDS011;10957;50.968;6.828;2023-02-17T14:47:31;5.40;;;5.20;;
21589;SDS011;10957;50.968;6.828;2023-02-17T14:52:33;6.05;;;5.75;;
21589;SDS011;10957;50.968;6.828;2023-02-17T14:57:41;5.47;;;5.10;;
21589;SDS011;10957;50.968;6.828;2023-02-17T15:02:42;6.53;;;5.93;;
21589;SDS011;10957;50.968;6.828;2023-02-17T15:07:43;5.45;;;5.25;;
21589;SDS011;10957;50.968;6.828;2023-02-17T15:12:45;5.40;;;5.20;;
21589;SDS011;10957;50.968;6.828;2023-02-17T15:17:47;4.55;;;4.35;;
21589;SDS011;10957;50.968;6.828;2023-02-17T15:22:48;4.80;;;4.60;;
21589;SDS011;10957;50.968;6.828;2023-02-17T15:27:52;5.20;;;5.00;;
21589;SDS011;10957;50.968;6.828;2023-02-17T15:32:53;5.10;;;4.90;;
21589;SDS011;10957;50.968;6.828;2023-02-17T15:37:55;4.47;;;4.28;;
21589;SDS011;10957;50.968;6.828;2023-02-17T15:42:57;4.40;;;4.20;;
21589;SDS011;10957;50.968;6.828;2023-02-17T15:48:09;4.30;;;4.10;;
21589;SDS011;10957;50.968;6.828;2023-02-17T15:53:18;4.70;;;4.50;;
21589;SDS011;10957;50.968;6.828;2023-02-17T15:58:20;4.65;;;4.45;;
21589;SDS011;10957;50.968;6.828;2023-02-17T16:03:22;4.88;;;4.68;;
21589;SDS011;10957;50.968;6.828;2023-02-17T16:08:23;4.40;;;4.20;;
21589;SDS011;10957;50.968;6.828;2023-02-17T16:13:24;4.20;;;4.00;;
21589;SDS011;10957;50.968;6.828;2023-02-17T16:18:26;3.75;;;3.65;;
21589;SDS011;10957;50.968;6.828;2023-02-17T16:23:28;3.80;;;3.70;;
21589;SDS011;10957;50.968;6.828;2023-02-17T16:28:29;3.65;;;3.55;;
21589;SDS011;10957;50.968;6.828;2023-02-17T16:33:31;3.03;;;2.92;;
21589;SDS011;10957;50.968;6.828;2023-02-17T16:38:33;3.10;;;3.00;;
21589;SDS011;10957;50.968;6.828;2023-02-17T16:43:35;2.90;;;2.80;;
21589;SDS011;10957;50.968;6.828;2023-02-17T16:48:36;2.80;;;2.70;;
21589;SDS011;10957;50.968;6.828;2023-02-17T16:53:42;3.00;;;2.90;;
21589;SDS011;10957;50.968;6.828;2023-02-17T16:58:43;2.50;;;2.40;;
21589;SDS011;10957;50.968;6.828;2023-02-17T17:03:44;3.53;;;3.42;;
21589;SDS011;10957;50.968;6.828;2023-02-17T17:08:46;2.85;;;2.75;;
21589;SDS011;10957;50.968;6.828;2023-02-17T17:13:48;2.90;;;2.80;;
21589;SDS011;10957;50.968;6.828;2023-02-17T17:18:49;3.10;;;3.00;;
21589;SDS011;10957;50.968;6.828;2023-02-17T17:23:51;3.10;;;3.00;;
21589;SDS011;10957;50.968;6.828;2023-02-17T17:28:53;3.20;;;3.10;;
21589;SDS011;10957;50.968;6.828;2023-02-17T17:33:54;2.90;;;2.80;;
21589;SDS011;10957;50.968;6.828;2023-02-17T17:38:59;2.90;;;2.80;;
21589;SDS011;10957;50.968;6.828;2023-02-17T17:44:01;3.00;;;2.90;;
21589;SDS011;10957;50.968;6.828;2023-02-17T17:49:03;2.90;;;2.80;;
21589;SDS011;10957;50.968;6.828;2023-02-17T17:54:06;3.03;;;2.92;;
21589;SDS011;10957;50.968;6.828;2023-02-17T17:59:07;2.70;;;2.60;;
21589;SDS011;10957;50.968;6.828;2023-02-17T18:04:10;3.00;;;2.90;;
21589;SDS011;10957;50.968;6.828;2023-02-17T18:09:13;3.10;;;3.00;;
21589;SDS011;10957;50.968;6.828;2023-02-17T18:14:17;3.20;;;3.10;;
21589;SDS011;10957;50.968;6.828;2023-02-17T18:19:19;3.00;;;2.90;;
21589;SDS011;10957;50.968;6.828;2023-02-17T18:24:21;3.28;;;3.17;;
21589;SDS011;10957;50.968;6.828;2023-02-17T18:29:22;2.75;;;2.65;;
21589;SDS011;10957;50.968;6.828;2023-02-17T18:34:23;2.78;;;2.67;;
21589;SDS011;10957;50.968;6.828;2023-02-17T18:39:25;2.80;;;2.70;;
21589;SDS011;10957;50.968;6.828;2023-02-17T18:44:27;3.10;;;3.00;;
21589;SDS011;10957;50.968;6.828;2023-02-17T18:49:28;3.05;;;2.72;;
21589;SDS011;10957;50.968;6.828;2023-02-17T18:54:29;2.88;;;2.78;;
21589;SDS011;10957;50.968;6.828;2023-02-17T18:59:31;2.63;;;2.53;;
21589;SDS011;10957;50.968;6.828;2023-02-17T19:04:32;2.53;;;2.42;;
21589;SDS011;10957;50.968;6.828;2023-02-17T19:09:34;2.60;;;2.50;;
21589;SDS011;10957;50.968;6.828;2023-02-17T19:14:36;2.80;;;2.70;;
21589;SDS011;10957;50.968;6.828;2023-02-17T19:19:38;2.78;;;2.67;;
21589;SDS011;10957;50.968;6.828;2023-02-17T19:24:40;2.90;;;2.80;;
21589;SDS011;10957;50.968;6.828;2023-02-17T19:29:42;3.20;;;3.10;;
21589;SDS011;10957;50.968;6.828;2023-02-17T19:34:43;2.90;;;2.80;;
21589;SDS011;10957;50.968;6.828;2023-02-17T19:39:44;2.80;;;2.70;;
21589;SDS011;10957;50.968;6.828;2023-02-17T19:44:46;2.47;;;2.38;;
21589;SDS011;10957;50.968;6.828;2023-02-17T19:49:47;2.53;;;2.42;;
21589;SDS011;10957;50.968;6.828;2023-02-17T19:54:48;2.45;;;2.35;;
21589;SDS011;10957;50.968;6.828;2023-02-17T19:59:50;2.25;;;2.15;;
21589;SDS011;10957;50.968;6.828;2023-02-17T20:04:51;3.20;;;3.00;;
21589;SDS011;10957;50.968;6.828;2023-02-17T20:09:52;2.30;;;2.20;;
21589;SDS011;10957;50.968;6.828;2023-02-17T20:14:53;2.10;;;2.00;;
21589;SDS011;10957;50.968;6.828;2023-02-17T20:19:55;2.10;;;2.00;;
21589;SDS011;10957;50.968;6.828;2023-02-17T20:24:56;2.30;;;2.20;;
21589;SDS011;10957;50.968;6.828;2023-02-17T20:29:58;2.17;;;2.08;;
21589;SDS011;10957;50.968;6.828;2023-02-17T20:35:00;2.40;;;2.30;;
21589;SDS011;10957;50.968;6.828;2023-02-17T20:40:01;2.50;;;2.40;;
21589;SDS011;10957;50.968;6.828;2023-02-17T20:45:03;2.72;;;2.63;;
21589;SDS011;10957;50.968;6.828;2023-02-17T20:50:04;2.55;;;2.45;;
21589;SDS011;10957;50.968;6.828;2023-02-17T20:55:08;2.53;;;2.35;;
21589;SDS011;10957;50.968;6.828;2023-02-17T21:00:14;2.30;;;2.20;;
21589;SDS011;10957;50.968;6.828;2023-02-17T21:05:18;3.00;;;2.88;;
21589;SDS011;10957;50.968;6.828;2023-02-17T21:10:21;2.53;;;2.42;;
21589;SDS011;10957;50.968;6.828;2023-02-17T21:15:25;2.40;;;2.30;;
21589;SDS011;10957;50.968;6.828;2023-02-17T21:20:26;2.25;;;2.15;;
21589;SDS011;10957;50.968;6.828;2023-02-17T21:25:28;2.72;;;2.50;;
21589;SDS011;10957;50.968;6.828;2023-02-17T21:30:29;2.40;;;2.30;;
21589;SDS011;10957;50.968;6.828;2023-02-17T21:35:30;2.70;;;2.60;;
21589;SDS011;10957;50.968;6.828;2023-02-17T21:40:31;2.50;;;2.40;;
21589;SDS011;10957;50.968;6.828;2023-02-17T21:45:35;2.10;;;2.00;;
21589;SDS011;10957;50.968;6.828;2023-02-17T21:50:38;2.38;;;2.28;;
21589;SDS011;10957;50.968;6.828;2023-02-17T21:55:39;2.63;;;2.53;;
21589;SDS011;10957;50.968;6.828;2023-02-17T22:00:40;2.40;;;2.30;;
21589;SDS011;10957;50.968;6.828;2023-02-17T22:05:41;3.30;;;3.10;;
21589;SDS011;10957;50.968;6.828;2023-02-17T22:16:16;2.10;;;2.00;;
21589;SDS011;10957;50.968;6.828;2023-02-17T22:21:18;2.67;;;2.53;;
21589;SDS011;10957;50.968;6.828;2023-02-17T22:26:20;2.33;;;2.22;;
21589;SDS011;10957;50.968;6.828;2023-02-17T22:31:24;2.63;;;2.53;;
21589;SDS011;10957;50.968;6.828;2023-02-17T22:36:29;2.20;;;2.10;;
21589;SDS011;10957;50.968;6.828;2023-02-17T22:41:32;2.22;;;2.13;;
21589;SDS011;10957;50.968;6.828;2023-02-17T22:46:34;2.20;;;2.10;;
21589;SDS011;10957;50.968;6.828;2023-02-17T22:51:37;2.25;;;2.15;;
21589;SDS011;10957;50.968;6.828;2023-02-17T22:56:39;2.25;;;2.15;;
21589;SDS011;10957;50.968;6.828;2023-02-17T23:01:40;2.20;;;2.10;;
21589;SDS011;10957;50.968;6.828;2023-02-17T23:06:42;2.40;;;2.30;;
21589;SDS011;10957;50.968;6.828;2023-02-17T23:11:44;2.28;;;2.17;;
21589;SDS011;10957;50.968;6.828;2023-02-17T23:16:58;2.10;;;2.00;;
21589;SDS011;10957;50.968;6.828;2023-02-17T23:22:09;2.03;;;1.92;;
21589;SDS011;10957;50.968;6.828;2023-02-17T23:27:15;3.22;;;2.47;;
21589;SDS011;10957;50.968;6.828;2023-02-17T23:32:16;1.80;;;1.80;;
21589;SDS011;10957;50.968;6.828;2023-02-17T23:37:17;2.05;;;1.95;;
21589;SDS011;10957;50.968;6.828;2023-02-17T23:42:19;2.60;;;2.50;;
21589;SDS011;10957;50.968;6.828;2023-02-17T23:47:20;3.15;;;2.40;;
21589;SDS011;10957;50.968;6.828;2023-02-17T23:52:21;2.30;;;2.20;;
21589;SDS011;10957;50.968;6.828;2023-02-17T23:57:23;2.85;;;2.70;;
